createdAt,value
2022-12-19T00:00:39.434Z,-2.33
2022-12-19T00:03:46.672Z,-2.31
2022-12-19T00:06:49.213Z,-2.32
2022-12-19T00:09:52.134Z,-2.35
2022-12-19T00:12:54.584Z,-2.31
2022-12-19T00:16:04.552Z,-2.32
2022-12-19T00:19:07.773Z,-2.29
2022-12-19T00:22:11.360Z,-2.32
2022-12-19T00:25:14.072Z,-2.32
2022-12-19T00:28:17.207Z,-2.39
2022-12-19T00:31:23.153Z,-2.30
2022-12-19T00:34:26.236Z,-2.39
2022-12-19T00:37:29.083Z,-2.31
2022-12-19T00:40:32.118Z,-2.33
2022-12-19T00:43:35.474Z,-2.35
2022-12-19T00:46:38.942Z,-2.30
2022-12-19T00:49:41.424Z,-2.35
2022-12-19T00:52:45.208Z,-2.46
2022-12-19T00:55:47.723Z,-2.49
2022-12-19T00:58:51.193Z,-2.49
2022-12-19T01:01:54.007Z,-2.46
2022-12-19T01:04:56.950Z,-2.50
2022-12-19T01:07:59.404Z,-2.51
2022-12-19T01:11:05.301Z,-2.50
2022-12-19T01:14:10.380Z,-2.49
2022-12-19T01:17:14.629Z,-2.63
2022-12-19T01:20:21.423Z,-2.55
2022-12-19T01:23:32.831Z,-2.54
2022-12-19T01:26:35.421Z,-2.51
2022-12-19T01:29:52.492Z,-2.50
2022-12-19T01:32:56.752Z,-2.75
2022-12-19T01:36:07.733Z,-2.51
2022-12-19T01:39:10.713Z,-2.52
2022-12-19T01:42:21.143Z,-2.60
2022-12-19T01:45:34.085Z,-2.50
2022-12-19T01:48:43.961Z,-2.49
2022-12-19T01:51:48.479Z,-2.50
2022-12-19T01:54:51.434Z,-2.53
2022-12-19T01:57:54.744Z,-2.57
2022-12-19T02:00:58.216Z,-2.53
2022-12-19T02:04:02.050Z,-2.56
2022-12-19T02:07:15.541Z,-2.54
2022-12-19T02:10:19.186Z,-2.53
2022-12-19T02:13:23.111Z,-2.53
2022-12-19T02:16:39.221Z,-2.58
2022-12-19T02:20:16.112Z,-2.58
2022-12-19T02:23:34.645Z,-2.58
2022-12-19T02:27:14.127Z,-2.60
2022-12-19T02:30:36.546Z,-2.61
2022-12-19T02:33:56.241Z,-2.66
2022-12-19T02:37:10.598Z,-2.59
2022-12-19T02:40:16.790Z,-2.59
2022-12-19T02:43:20.889Z,-2.55
2022-12-19T02:46:25.346Z,-2.54
2022-12-19T02:49:31.266Z,-2.53
2022-12-19T02:52:34.355Z,-2.56
2022-12-19T02:56:14.868Z,-2.53
2022-12-19T02:59:43.906Z,-2.55
2022-12-19T03:03:22.254Z,-2.53
2022-12-19T03:06:43.390Z,-2.56
2022-12-19T03:10:08.640Z,-2.55
2022-12-19T03:13:33.907Z,-2.51
2022-12-19T03:16:38.145Z,-2.50
2022-12-19T03:19:41.556Z,-2.51
2022-12-19T03:22:44.412Z,-2.50
2022-12-19T03:25:50.132Z,-2.51
2022-12-19T03:29:09.786Z,-2.55
2022-12-19T03:32:16.181Z,-2.56
2022-12-19T03:35:22.805Z,-2.55
2022-12-19T03:38:26.551Z,-2.55
2022-12-19T03:41:48.542Z,-2.57
2022-12-19T03:44:51.693Z,-2.53
2022-12-19T03:48:01.075Z,-2.50
2022-12-19T03:51:11.644Z,-2.59
2022-12-19T03:54:19.147Z,-2.55
2022-12-19T03:57:28.627Z,-2.53
2022-12-19T04:00:34.787Z,-2.55
2022-12-19T04:03:37.664Z,-2.54
2022-12-19T04:06:42.577Z,-2.47
2022-12-19T04:09:45.918Z,-2.50
2022-12-19T04:13:02.337Z,-2.50
2022-12-19T04:16:22.679Z,-2.48
2022-12-19T04:19:30.635Z,-2.48
2022-12-19T04:22:47.249Z,-2.50
2022-12-19T04:25:51.879Z,-2.43
2022-12-19T04:28:56.791Z,-2.39
2022-12-19T04:32:00.253Z,-2.39
2022-12-19T04:35:03.310Z,-2.40
2022-12-19T04:38:06.560Z,-2.38
2022-12-19T04:41:11.171Z,-2.42
2022-12-19T04:44:13.660Z,-2.36
2022-12-19T04:47:16.438Z,-2.40
2022-12-19T04:50:19.201Z,-2.42
2022-12-19T04:53:21.937Z,-2.41
2022-12-19T04:56:24.523Z,-2.39
2022-12-19T04:59:27.703Z,-2.42
2022-12-19T05:02:30.490Z,-2.43
2022-12-19T05:05:33.350Z,-2.48
2022-12-19T05:08:38.103Z,-2.47
2022-12-19T05:11:41.168Z,-2.43
2022-12-19T05:14:43.621Z,-2.48
2022-12-19T05:17:46.493Z,-2.48
2022-12-19T05:20:49.356Z,-2.50
2022-12-19T05:23:52.320Z,-2.51
2022-12-19T05:26:54.746Z,-2.56
2022-12-19T05:29:57.590Z,-2.54
2022-12-19T05:33:00.378Z,-2.58
2022-12-19T05:36:03.944Z,-2.79
2022-12-19T05:39:06.774Z,-2.73
2022-12-19T05:42:12.338Z,-2.59
2022-12-19T05:45:15.239Z,-2.57
2022-12-19T05:48:18.139Z,-2.57
2022-12-19T05:51:21.255Z,-2.57
2022-12-19T05:54:24.132Z,-2.62
2022-12-19T05:57:26.647Z,-2.78
2022-12-19T06:00:33.832Z,-2.69
2022-12-19T06:03:37.022Z,-2.71
2022-12-19T06:06:39.689Z,-2.77
2022-12-19T06:09:42.958Z,-2.70
2022-12-19T06:12:45.893Z,-2.81
2022-12-19T06:15:48.786Z,-2.83
2022-12-19T06:18:51.494Z,-2.83
2022-12-19T06:21:54.283Z,-2.27
2022-12-19T06:24:57.250Z,-1.83
2022-12-19T06:28:00.083Z,-2.10
2022-12-19T06:31:04.794Z,-2.26
2022-12-19T06:34:10.238Z,-2.49
2022-12-19T06:37:12.810Z,-2.75
2022-12-19T06:40:35.785Z,-2.84
2022-12-19T06:43:38.478Z,-2.94
2022-12-19T06:46:42.184Z,-2.97
2022-12-19T06:49:45.411Z,-3.03
2022-12-19T06:52:48.280Z,-3.09
2022-12-19T06:55:52.665Z,-3.13
2022-12-19T06:58:55.502Z,-3.09
2022-12-19T07:02:00.665Z,-3.11
2022-12-19T07:05:05.670Z,-3.16
2022-12-19T07:08:08.703Z,-3.66
2022-12-19T07:11:11.823Z,-3.14
2022-12-19T07:14:14.336Z,-3.14
2022-12-19T07:17:18.179Z,-3.16
2022-12-19T07:20:21.654Z,-3.17
2022-12-19T07:23:24.588Z,-3.26
2022-12-19T07:26:27.577Z,-3.17
2022-12-19T07:29:30.512Z,-1.28
2022-12-19T07:32:33.246Z,-0.63
2022-12-19T07:35:36.109Z,-1.02
2022-12-19T07:38:38.805Z,-1.55
2022-12-19T07:41:41.698Z,-1.98
2022-12-19T07:44:44.500Z,-2.32
2022-12-19T07:47:47.983Z,-2.65
2022-12-19T07:50:50.687Z,-2.79
2022-12-19T07:53:53.556Z,-2.87
2022-12-19T07:56:56.434Z,-2.84
2022-12-19T07:59:59.388Z,-2.89
2022-12-19T08:03:02.534Z,-2.88
2022-12-19T08:06:06.841Z,-2.87
2022-12-19T08:09:09.470Z,-2.96
2022-12-19T08:12:12.891Z,-3.00
2022-12-19T08:15:15.352Z,-3.13
2022-12-19T08:18:18.247Z,-3.09
2022-12-19T08:21:20.727Z,-2.96
2022-12-19T08:24:23.569Z,-2.92
2022-12-19T08:27:26.749Z,-2.84
2022-12-19T08:30:29.881Z,-2.33
2022-12-19T08:33:32.429Z,-2.59
2022-12-19T08:36:35.291Z,-2.70
2022-12-19T08:39:37.788Z,-2.65
2022-12-19T08:42:40.661Z,-2.83
2022-12-19T08:45:43.145Z,-2.67
2022-12-19T08:48:46.766Z,-2.59
2022-12-19T08:51:49.758Z,-2.62
2022-12-19T08:54:52.572Z,-2.56
2022-12-19T08:57:55.061Z,-2.60
2022-12-19T09:01:05.491Z,-2.55
2022-12-19T09:05:52.004Z,-2.52
2022-12-19T09:07:31.259Z,-2.32
2022-12-19T09:10:37.622Z,-2.14
2022-12-19T09:13:41.879Z,-2.12
2022-12-19T09:16:44.352Z,-0.58
2022-12-19T09:19:47.747Z,-0.87
2022-12-19T09:22:50.933Z,-1.22
2022-12-19T09:25:54.944Z,-1.54
2022-12-19T09:28:57.594Z,-1.72
2022-12-19T09:32:00.428Z,-2.13
2022-12-19T09:35:02.985Z,-2.19
2022-12-19T09:38:05.847Z,-1.98
2022-12-19T09:41:20.745Z,-1.93
2022-12-19T09:44:45.179Z,-1.67
2022-12-19T09:47:49.023Z,-1.61
2022-12-19T09:50:54.762Z,-1.47
2022-12-19T09:54:09.354Z,-1.53
2022-12-19T09:57:22.395Z,-1.35
2022-12-19T10:00:32.881Z,-0.84
2022-12-19T10:03:42.379Z,-0.99
2022-12-19T10:07:11.419Z,-0.88
2022-12-19T10:12:34.537Z,-0.75
2022-12-19T10:13:55.013Z,-0.92
2022-12-19T10:17:24.478Z,0.08
2022-12-19T10:20:31.105Z,-0.10
2022-12-19T10:23:45.936Z,-0.32
2022-12-19T10:26:52.177Z,-0.77
2022-12-19T10:30:10.927Z,-1.02
2022-12-19T10:33:27.147Z,-1.39
2022-12-19T10:37:04.599Z,-1.51
2022-12-19T10:40:37.197Z,-0.94
2022-12-19T10:44:02.638Z,-0.47
2022-12-19T10:47:05.250Z,-0.35
2022-12-19T10:50:23.516Z,-0.60
2022-12-19T10:53:28.881Z,-0.69
2022-12-19T10:56:37.508Z,-0.92
2022-12-19T10:59:56.456Z,-1.13
2022-12-19T11:03:16.698Z,-1.04
2022-12-19T11:06:42.579Z,-0.95
2022-12-19T11:09:49.630Z,-0.60
2022-12-19T11:18:26.395Z,-0.63
2022-12-19T11:22:24.727Z,-0.80
2022-12-19T11:29:26.910Z,-0.92
2022-12-19T11:29:38.527Z,-0.88
2022-12-19T11:30:41.740Z,-0.93
2022-12-19T11:34:35.687Z,-1.14
2022-12-19T11:37:46.117Z,-1.30
2022-12-19T11:40:53.521Z,-1.36
2022-12-19T11:44:03.365Z,-1.43
2022-12-19T11:47:23.910Z,-1.48
2022-12-19T11:50:30.153Z,-1.74
2022-12-19T11:53:44.826Z,-1.80
2022-12-19T11:56:47.658Z,-1.78
2022-12-19T11:59:52.619Z,-1.79
2022-12-19T12:03:09.410Z,-1.78
2022-12-19T12:06:15.434Z,-1.77
2022-12-19T12:13:01.618Z,-1.79
2022-12-19T12:23:13.230Z,-1.97
2022-12-19T12:30:19.047Z,-1.93
2022-12-19T12:31:17.331Z,-1.82
2022-12-19T12:31:38.743Z,-1.54
2022-12-19T12:31:41.052Z,-1.59
2022-12-19T12:31:49.209Z,-1.47
2022-12-19T12:35:56.312Z,-1.70
2022-12-19T12:38:26.496Z,-1.57
2022-12-19T12:41:56.886Z,-1.95
2022-12-19T12:44:59.696Z,0.24
2022-12-19T12:48:02.561Z,-0.68
2022-12-19T12:51:05.880Z,-1.23
2022-12-19T12:54:12.464Z,-1.50
2022-12-19T12:57:36.995Z,-1.81
2022-12-19T13:00:39.961Z,-1.99
2022-12-19T13:03:43.040Z,-2.06
2022-12-19T13:06:51.913Z,-2.16
2022-12-19T13:10:43.950Z,-2.12
2022-12-19T13:13:58.113Z,-2.05
2022-12-19T13:17:07.688Z,-2.12
2022-12-19T13:20:12.179Z,-2.23
2022-12-19T13:23:30.110Z,-2.22
2022-12-19T13:26:49.334Z,-2.29
2022-12-19T13:30:12.433Z,-2.25
2022-12-19T13:33:16.341Z,-2.35
2022-12-19T13:39:55.645Z,-2.34
2022-12-19T13:40:32.273Z,-2.38
2022-12-19T13:43:48.114Z,-2.37
2022-12-19T13:46:50.968Z,-2.42
2022-12-19T13:49:53.951Z,-2.45
2022-12-19T13:52:57.164Z,-2.56
2022-12-19T13:56:12.301Z,-2.63
2022-12-19T13:59:15.140Z,-2.58
2022-12-19T14:02:28.901Z,-2.66
2022-12-19T14:06:16.850Z,-2.78
2022-12-19T14:11:24.978Z,-2.69
2022-12-19T14:13:40.195Z,-2.66
2022-12-19T14:16:16.285Z,-2.64
2022-12-19T14:19:21.761Z,-2.65
2022-12-19T14:22:27.511Z,-2.71
2022-12-19T14:28:21.196Z,-2.78
2022-12-19T14:29:45.553Z,-2.81
2022-12-19T14:33:46.159Z,-2.85
2022-12-19T14:36:25.704Z,-2.86
2022-12-19T14:39:35.276Z,-2.97
2022-12-19T14:43:59.031Z,-2.89
2022-12-19T14:51:51.586Z,-2.89
2022-12-19T14:54:15.828Z,-2.90
2022-12-19T14:54:26.486Z,-3.02
2022-12-19T14:57:00.696Z,-2.98
2022-12-19T15:01:07.174Z,-3.03
2022-12-19T15:04:49.547Z,-3.07
2022-12-19T15:07:19.801Z,-3.07
2022-12-19T15:11:03.269Z,-3.11
2022-12-19T15:14:51.087Z,-3.23
2022-12-19T15:17:25.501Z,-3.18
2022-12-19T15:20:28.383Z,-3.17
2022-12-19T15:23:31.399Z,-3.16
2022-12-19T15:26:36.066Z,-3.17
2022-12-19T15:29:38.637Z,-3.21
2022-12-19T15:32:41.799Z,-3.23
2022-12-19T15:35:45.168Z,-3.21
2022-12-19T15:38:48.071Z,-3.22
2022-12-19T15:41:52.113Z,-3.24
2022-12-19T15:45:00.096Z,-3.36
2022-12-19T15:48:02.668Z,-3.33
2022-12-19T15:51:05.744Z,-3.35
2022-12-19T15:54:46.633Z,-3.38
2022-12-19T15:57:33.888Z,-3.39
2022-12-19T16:00:36.863Z,-3.37
2022-12-19T16:03:40.227Z,-3.40
2022-12-19T16:06:44.373Z,-3.43
2022-12-19T16:09:48.122Z,-3.45
2022-12-19T16:12:53.215Z,-3.49
2022-12-19T16:15:57.859Z,-3.49
2022-12-19T16:19:00.416Z,-3.49
2022-12-19T16:22:15.378Z,-3.51
2022-12-19T16:25:18.128Z,-3.53
2022-12-19T16:28:30.881Z,-3.54
2022-12-19T16:31:33.750Z,-3.55
2022-12-19T16:34:36.611Z,-3.55
2022-12-19T16:37:39.155Z,-3.52
2022-12-19T16:40:42.730Z,-3.51
2022-12-19T16:43:45.904Z,-3.60
2022-12-19T16:46:51.390Z,-3.52
2022-12-19T16:49:54.273Z,-3.60
2022-12-19T16:52:57.372Z,-3.53
2022-12-19T16:56:00.283Z,-3.51
2022-12-19T16:59:08.501Z,-3.48
2022-12-19T17:02:26.004Z,-3.49
2022-12-19T17:05:30.893Z,-3.48
2022-12-19T17:08:33.782Z,-3.39
2022-12-19T17:11:36.672Z,-3.21
2022-12-19T17:14:39.226Z,-3.29
2022-12-19T17:17:42.078Z,-3.35
2022-12-19T17:20:46.601Z,-3.39
2022-12-19T17:23:50.205Z,-3.16
2022-12-19T17:26:52.864Z,-3.32
2022-12-19T17:29:55.912Z,-3.38
2022-12-19T17:32:59.224Z,-3.39
2022-12-19T17:36:03.672Z,-3.40
2022-12-19T17:39:18.851Z,-3.44
2022-12-19T17:42:24.052Z,-3.48
2022-12-19T17:45:29.570Z,-3.52
2022-12-19T17:48:33.416Z,-3.54
2022-12-19T17:51:35.898Z,-3.56
2022-12-19T17:54:38.825Z,-3.71
2022-12-19T17:57:41.366Z,-3.62
2022-12-19T18:00:44.948Z,-3.64
2022-12-19T18:03:50.828Z,-3.72
2022-12-19T18:06:53.638Z,-3.70
2022-12-19T18:09:56.819Z,-3.66
2022-12-19T18:12:59.385Z,-3.70
2022-12-19T18:16:03.494Z,-3.74
2022-12-19T18:19:06.423Z,-3.76
2022-12-19T18:22:13.576Z,-3.88
2022-12-19T18:25:22.423Z,-3.79
2022-12-19T18:28:25.280Z,-3.80
2022-12-19T18:31:28.045Z,-3.80
2022-12-19T18:34:32.230Z,-3.78
2022-12-19T18:37:34.689Z,-3.75
2022-12-19T18:40:38.191Z,-3.74
2022-12-19T18:43:40.965Z,-3.77
2022-12-19T18:46:44.368Z,-3.73
2022-12-19T18:49:48.316Z,-3.77
2022-12-19T18:52:52.214Z,-3.71
2022-12-19T18:55:55.639Z,-3.73
2022-12-19T18:59:03.868Z,-3.77
2022-12-19T19:02:24.172Z,-3.75
2022-12-19T19:05:29.683Z,-3.72
2022-12-19T19:08:34.286Z,-3.70
2022-12-19T19:11:39.255Z,-3.75
2022-12-19T19:14:42.236Z,-3.63
2022-12-19T19:17:48.291Z,-3.66
2022-12-19T19:20:55.727Z,-3.71
2022-12-19T19:24:06.003Z,-3.67
2022-12-19T19:27:08.506Z,-3.67
2022-12-19T19:30:12.244Z,-3.72
2022-12-19T19:33:21.758Z,-3.70
2022-12-19T19:36:28.260Z,-3.72
2022-12-19T19:39:32.659Z,-3.65
2022-12-19T19:42:35.980Z,-3.68
2022-12-19T19:45:43.265Z,-3.66
2022-12-19T19:48:49.350Z,-3.89
2022-12-19T19:51:55.631Z,-3.68
2022-12-19T19:55:01.452Z,-3.57
2022-12-19T19:58:04.267Z,-3.58
2022-12-19T20:01:12.103Z,-3.70
2022-12-19T20:04:15.287Z,-3.64
2022-12-19T20:07:17.947Z,-3.67
2022-12-19T20:10:21.113Z,-3.67
2022-12-19T20:13:23.901Z,-3.66
2022-12-19T20:16:26.848Z,-3.67
2022-12-19T20:19:29.599Z,-3.70
2022-12-19T20:22:35.456Z,-3.68
2022-12-19T20:25:39.921Z,-3.68
2022-12-19T20:28:48.400Z,-3.66
2022-12-19T20:31:52.281Z,-3.66
2022-12-19T20:34:55.490Z,-3.65
2022-12-19T20:37:58.067Z,-3.77
2022-12-19T20:41:01.213Z,-3.64
2022-12-19T20:44:03.912Z,-3.65
2022-12-19T20:47:06.942Z,-3.70
2022-12-19T20:50:09.789Z,-3.71
2022-12-19T20:53:12.697Z,-3.66
2022-12-19T20:56:17.258Z,-3.81
2022-12-19T20:59:20.329Z,-3.73
2022-12-19T21:02:22.965Z,-3.67
2022-12-19T21:05:26.005Z,-3.66
2022-12-19T21:08:28.917Z,-3.68
2022-12-19T21:11:32.020Z,-3.64
2022-12-19T21:14:34.612Z,-3.72
2022-12-19T21:17:37.849Z,-3.65
2022-12-19T21:20:42.908Z,-3.67
2022-12-19T21:23:45.933Z,-3.73
2022-12-19T21:26:57.492Z,-3.81
2022-12-19T21:30:01.018Z,-3.74
2022-12-19T21:33:04.220Z,-3.72
2022-12-19T21:36:08.624Z,-3.75
2022-12-19T21:39:11.430Z,-3.76
2022-12-19T21:42:14.462Z,-3.78
2022-12-19T21:45:17.395Z,-3.85
2022-12-19T21:48:20.273Z,-3.79
2022-12-19T21:51:25.377Z,-3.78
2022-12-19T21:54:28.241Z,-3.80
2022-12-19T21:57:30.932Z,-3.81
2022-12-19T22:00:35.691Z,-3.82
2022-12-19T22:03:39.715Z,-3.82
2022-12-19T22:06:42.282Z,-3.83
2022-12-19T22:09:45.342Z,-3.81
2022-12-19T22:12:48.331Z,-3.84
2022-12-19T22:15:51.249Z,-3.85
2022-12-19T22:18:55.005Z,-3.89
2022-12-19T22:21:57.944Z,-3.88
2022-12-19T22:25:00.521Z,-3.88
2022-12-19T22:28:04.215Z,-3.93
2022-12-19T22:31:24.308Z,-3.93
2022-12-19T22:34:27.368Z,-3.93
2022-12-19T22:37:30.077Z,-3.95
2022-12-19T22:40:34.931Z,-3.98
2022-12-19T22:43:38.974Z,-4.00
2022-12-19T22:46:41.813Z,-4.16
2022-12-19T22:49:44.532Z,-4.08
2022-12-19T22:52:47.792Z,-4.02
2022-12-19T22:55:50.386Z,-4.09
2022-12-19T22:58:55.342Z,-4.05
2022-12-19T23:01:58.219Z,-4.06
2022-12-19T23:05:01.425Z,-4.06
2022-12-19T23:08:04.424Z,-4.10
2022-12-19T23:11:11.473Z,-4.11
2022-12-19T23:14:15.997Z,-4.12
2022-12-19T23:17:18.868Z,-4.09
2022-12-19T23:20:21.379Z,-4.12
2022-12-19T23:23:24.117Z,-4.11
2022-12-19T23:26:27.905Z,-4.12
2022-12-19T23:29:30.801Z,-4.12
2022-12-19T23:32:33.522Z,-4.11
2022-12-19T23:35:36.317Z,-4.10
2022-12-19T23:38:39.051Z,-4.10
2022-12-19T23:41:42.211Z,-4.11
2022-12-19T23:44:44.988Z,-4.13
2022-12-19T23:47:50.717Z,-4.10
2022-12-19T23:51:17.572Z,-4.09
2022-12-19T23:54:20.456Z,-4.15
2022-12-19T23:57:22.936Z,-4.11
